Rapports METAR des aéroports proches

 

LFSI - St. Dizier/Robin, France
Distance from station: SO 26km
Mise à jour: 17/11/2017 18:00
couvert
couvert
 Wind from NNE
Vent: NNE 6 km/h
Température: 7°C
Point de rosée: 7°C
Humidité: 100%
Baromètre: 1026 hPa
Clouds: couvert
Visibility: 6 km
Cloud details: nuageux 183 m
nuageux 427 m
couvert 1951 m
2017/11/17 17:00 LFSI 171700Z AUTO 02003KT 6000 BKN006 BKN014 OVC064 07/07 Q1026
LFSO - Nancy/Ochey (faf, France
Distance from station: ESE 62km
Mise à jour: 17/11/2017 18:00

 Wind from ESE
Vent: ESE 6 km/h
Visibility: 2 km
2017/11/17 17:00 LFSO 171700Z AUTO 12003KT 1800 1200 R20/P2000 BR OVC003 05/05 Q1025
 
LFOK - Chalons/Vatry Fa, France
Distance from station: O 73km
Mise à jour: 17/11/2017 18:00
Mist, nuageux
Mist, nuageux
 Wind from N
Vent: N 7 km/h
Température: 7°C
Wind Chill: 6°C
Point de rosée: 6°C
Humidité: 93%
Baromètre: 1026 hPa
Résumé: Mist
Clouds: nuageux
Visibility: 5 km
Cloud details: nuageux 183 m
nuageux 366 m
nuageux 518 m
2017/11/17 17:00 LFOK 171700Z AUTO 01004KT 4900 BR BKN006 BKN012 BKN017 07/06 Q1026 TEMPO 6000 NSW BECMG BKN020
LFSN - Nancy/Essey, France
Distance from station: E 77km
Mise à jour: 17/11/2017 18:00
couvert
couvert
 Wind from varies
Vent: varies 4 km/h
Température: 6°C
Point de rosée: 5°C
Humidité: 93%
Baromètre: 1026 hPa
Clouds: couvert
Visibility: 6 km
Cloud details: couvert 152 m
2017/11/17 17:00 LFSN 171700Z AUTO VRB02KT 6000 OVC005 06/05 Q1026
 
LFJL - Metz-Nancy-Lorra, France
Distance from station: ENE 82km
Mise à jour: 17/11/2017 18:00

 Wind from varies
Vent: varies 6 km/h
Visibility: 3 km
2017/11/17 17:00 LFJL 171700Z AUTO VRB03KT 2700 1300 R22/1900N R04/P2000 BR VV/// 06/05 Q1025 BECMG OVC002
LFQA - Reims/Prunay, France
Distance from station: ONO 89km
Mise à jour: 17/11/2017 18:00
Mist, Few clouds
Mist, Few clouds
 Wind from NNO
Vent: NNO 6 km/h
Température: 4°C
Point de rosée: 4°C
Humidité: 100%
Baromètre: 1026 hPa
Résumé: Mist
Clouds: Few Clouds
Visibility: 3 km
Cloud details: Few Clouds 732 m
2017/11/17 17:00 LFQA 171700Z AUTO 33003KT 3000 BR FEW024 04/04 Q1026
 
LFQB - Troyes/Barberey, France
Distance from station: OSO 99km
Mise à jour: 17/11/2017 18:00
Mist, couvert
Mist, couvert
 Wind from N
Vent: N 6 km/h
Température: 8°C
Point de rosée: 7°C
Humidité: 93%
Baromètre: 1026 hPa
Résumé: Mist
Clouds: couvert
Visibility: 5 km
Cloud details: couvert 183 m
2017/11/17 17:00 LFQB 171700Z AUTO 35003KT 5000 BR OVC006 08/07 Q1026
ELLX - Luxembourg (aut), Luxembourg
Distance from station: NE 122km
Mise à jour: 17/11/2017 17:50
Fog, nuageux
Fog, nuageux
 Wind from varies
Vent: varies 4 km/h
Température: 5°C
Point de rosée: 5°C
Humidité: 100%
Baromètre: 1025 hPa
Résumé: Fog
Clouds: nuageux
Visibility: 0 km
Cloud details: nuageux 30 m
2017/11/17 16:50 ELLX 171650Z VRB02KT 0300 R24/1100V1900U FG BKN001 05/05 Q1025 TEMPO 2500 SCT002